sensor_id;sensor_type;location;lat;lon;timestamp;temperature;humidity
2489;DHT22;1255;48.716;9.124;2023-12-20T00:02:18;5.60;99.90
2489;DHT22;1255;48.716;9.124;2023-12-20T00:04:46;5.60;99.90
2489;DHT22;1255;48.716;9.124;2023-12-20T00:07:13;5.70;99.90
2489;DHT22;1255;48.716;9.124;2023-12-20T00:09:40;5.70;99.90
2489;DHT22;1255;48.716;9.124;2023-12-20T00:12:07;5.70;99.90
2489;DHT22;1255;48.716;9.124;2023-12-20T00:14:33;5.70;99.90
2489;DHT22;1255;48.716;9.124;2023-12-20T04:32:37;5.10;99.90
2489;DHT22;1255;48.716;9.124;2023-12-20T04:35:04;5.10;99.90
2489;DHT22;1255;48.716;9.124;2023-12-20T04:37:31;5.10;99.90
2489;DHT22;1255;48.716;9.124;2023-12-20T04:39:58;5.10;99.90
2489;DHT22;1255;48.716;9.124;2023-12-20T04:42:24;5.10;99.90
2489;DHT22;1255;48.716;9.124;2023-12-20T04:44:51;5.00;99.90
2489;DHT22;1255;48.716;9.124;2023-12-20T04:47:18;5.00;99.90
2489;DHT22;1255;48.716;9.124;2023-12-20T04:49:46;5.10;99.90
2489;DHT22;1255;48.716;9.124;2023-12-20T04:52:13;5.10;99.90
2489;DHT22;1255;48.716;9.124;2023-12-20T04:54:40;5.10;99.90
2489;DHT22;1255;48.716;9.124;2023-12-20T04:57:06;5.10;99.90
2489;DHT22;1255;48.716;9.124;2023-12-20T04:59:32;5.10;99.90
2489;DHT22;1255;48.716;9.124;2023-12-20T05:01:59;5.10;99.90
2489;DHT22;1255;48.716;9.124;2023-12-20T05:04:26;5.10;99.90
2489;DHT22;1255;48.716;9.124;2023-12-20T05:06:54;5.10;99.90
2489;DHT22;1255;48.716;9.124;2023-12-20T05:09:20;5.10;99.90
2489;DHT22;1255;48.716;9.124;2023-12-20T05:11:47;5.10;99.90
2489;DHT22;1255;48.716;9.124;2023-12-20T05:14:14;5.10;99.90
2489;DHT22;1255;48.716;9.124;2023-12-20T05:16:41;5.00;99.90
2489;DHT22;1255;48.716;9.124;2023-12-20T05:19:07;5.00;99.90
2489;DHT22;1255;48.716;9.124;2023-12-20T05:21:34;5.00;99.90
2489;DHT22;1255;48.716;9.124;2023-12-20T05:24:03;5.00;99.90
2489;DHT22;1255;48.716;9.124;2023-12-20T05:26:30;5.00;99.90
2489;DHT22;1255;48.716;9.124;2023-12-20T05:28:56;5.00;99.90
2489;DHT22;1255;48.716;9.124;2023-12-20T05:31:23;5.00;99.90
2489;DHT22;1255;48.716;9.124;2023-12-20T05:33:50;5.00;99.90
2489;DHT22;1255;48.716;9.124;2023-12-20T05:36:16;5.00;99.90
2489;DHT22;1255;48.716;9.124;2023-12-20T05:38:43;5.00;99.90
2489;DHT22;1255;48.716;9.124;2023-12-20T05:41:11;4.90;99.90
2489;DHT22;1255;48.716;9.124;2023-12-20T05:43:39;4.90;99.90
2489;DHT22;1255;48.716;9.124;2023-12-20T05:46:05;4.90;99.90
2489;DHT22;1255;48.716;9.124;2023-12-20T05:48:32;4.90;99.90
2489;DHT22;1255;48.716;9.124;2023-12-20T05:50:59;4.90;99.90
2489;DHT22;1255;48.716;9.124;2023-12-20T05:53:25;4.90;99.90
2489;DHT22;1255;48.716;9.124;2023-12-20T05:55:52;4.90;99.90
2489;DHT22;1255;48.716;9.124;2023-12-20T05:58:20;4.90;99.90
2489;DHT22;1255;48.716;9.124;2023-12-20T06:00:47;4.90;99.90
2489;DHT22;1255;48.716;9.124;2023-12-20T06:03:14;4.90;99.90
2489;DHT22;1255;48.716;9.124;2023-12-20T06:05:41;4.90;99.90
2489;DHT22;1255;48.716;9.124;2023-12-20T06:08:07;4.90;99.90
2489;DHT22;1255;48.716;9.124;2023-12-20T06:10:34;4.90;99.90
2489;DHT22;1255;48.716;9.124;2023-12-20T06:13:01;4.90;99.90
2489;DHT22;1255;48.716;9.124;2023-12-20T06:15:31;4.90;99.90
2489;DHT22;1255;48.716;9.124;2023-12-20T06:17:57;4.90;99.90
2489;DHT22;1255;48.716;9.124;2023-12-20T06:20:24;4.90;99.90
2489;DHT22;1255;48.716;9.124;2023-12-20T06:22:51;4.90;99.90
2489;DHT22;1255;48.716;9.124;2023-12-20T06:25:18;4.90;99.90
2489;DHT22;1255;48.716;9.124;2023-12-20T06:27:44;4.90;99.90
2489;DHT22;1255;48.716;9.124;2023-12-20T06:30:12;4.90;99.90
2489;DHT22;1255;48.716;9.124;2023-12-20T06:32:40;4.90;99.90
2489;DHT22;1255;48.716;9.124;2023-12-20T06:35:08;4.90;99.90
2489;DHT22;1255;48.716;9.124;2023-12-20T06:37:35;4.90;99.90
2489;DHT22;1255;48.716;9.124;2023-12-20T06:40:02;4.90;99.90
2489;DHT22;1255;48.716;9.124;2023-12-20T06:42:29;4.90;99.90
2489;DHT22;1255;48.716;9.124;2023-12-20T06:44:56;4.90;99.90
2489;DHT22;1255;48.716;9.124;2023-12-20T06:47:23;4.90;99.90
2489;DHT22;1255;48.716;9.124;2023-12-20T06:49:51;4.90;99.90
2489;DHT22;1255;48.716;9.124;2023-12-20T06:52:18;4.90;99.90
2489;DHT22;1255;48.716;9.124;2023-12-20T06:54:45;4.90;99.90
2489;DHT22;1255;48.716;9.124;2023-12-20T06:57:11;4.90;99.90
2489;DHT22;1255;48.716;9.124;2023-12-20T06:59:38;4.90;99.90
2489;DHT22;1255;48.716;9.124;2023-12-20T07:02:06;5.00;99.90
2489;DHT22;1255;48.716;9.124;2023-12-20T07:04:33;5.00;99.90
2489;DHT22;1255;48.716;9.124;2023-12-20T07:07:01;5.10;99.90
2489;DHT22;1255;48.716;9.124;2023-12-20T07:09:28;5.10;99.90
2489;DHT22;1255;48.716;9.124;2023-12-20T07:11:54;5.20;99.90
2489;DHT22;1255;48.716;9.124;2023-12-20T07:14:21;5.20;99.90
2489;DHT22;1255;48.716;9.124;2023-12-20T07:16:48;5.20;99.90
2489;DHT22;1255;48.716;9.124;2023-12-20T07:19:15;5.20;99.90
2489;DHT22;1255;48.716;9.124;2023-12-20T07:21:41;5.30;99.90
2489;DHT22;1255;48.716;9.124;2023-12-20T07:24:10;5.20;99.90
2489;DHT22;1255;48.716;9.124;2023-12-20T07:26:36;5.20;99.90
2489;DHT22;1255;48.716;9.124;2023-12-20T07:29:04;5.20;99.90
2489;DHT22;1255;48.716;9.124;2023-12-20T07:31:30;5.20;99.90
2489;DHT22;1255;48.716;9.124;2023-12-20T07:33:57;5.10;99.90
2489;DHT22;1255;48.716;9.124;2023-12-20T07:36:24;5.10;99.90
2489;DHT22;1255;48.716;9.124;2023-12-20T07:38:51;5.10;99.90
2489;DHT22;1255;48.716;9.124;2023-12-20T07:41:19;5.10;99.90
2489;DHT22;1255;48.716;9.124;2023-12-20T07:43:47;5.20;99.90
2489;DHT22;1255;48.716;9.124;2023-12-20T07:46:14;5.20;99.90
2489;DHT22;1255;48.716;9.124;2023-12-20T07:48:41;5.20;99.90
2489;DHT22;1255;48.716;9.124;2023-12-20T07:51:08;5.10;99.90
2489;DHT22;1255;48.716;9.124;2023-12-20T07:53:35;5.10;99.90
2489;DHT22;1255;48.716;9.124;2023-12-20T07:56:12;5.00;99.90
2489;DHT22;1255;48.716;9.124;2023-12-20T07:58:40;5.00;99.90
2489;DHT22;1255;48.716;9.124;2023-12-20T08:01:07;5.00;99.90
2489;DHT22;1255;48.716;9.124;2023-12-20T08:03:34;5.00;99.90
2489;DHT22;1255;48.716;9.124;2023-12-20T08:06:02;5.00;99.90
2489;DHT22;1255;48.716;9.124;2023-12-20T08:08:29;4.90;99.90
2489;DHT22;1255;48.716;9.124;2023-12-20T08:10:56;4.90;99.90
2489;DHT22;1255;48.716;9.124;2023-12-20T08:13:25;5.00;99.90
2489;DHT22;1255;48.716;9.124;2023-12-20T08:15:54;4.90;99.90
2489;DHT22;1255;48.716;9.124;2023-12-20T08:18:21;4.90;99.90
2489;DHT22;1255;48.716;9.124;2023-12-20T08:20:48;4.90;99.90
2489;DHT22;1255;48.716;9.124;2023-12-20T08:23:15;4.90;99.90
2489;DHT22;1255;48.716;9.124;2023-12-20T08:25:42;4.90;99.90
2489;DHT22;1255;48.716;9.124;2023-12-20T08:28:09;4.90;99.90
2489;DHT22;1255;48.716;9.124;2023-12-20T08:30:35;4.90;99.90
2489;DHT22;1255;48.716;9.124;2023-12-20T08:33:06;4.90;99.90
2489;DHT22;1255;48.716;9.124;2023-12-20T08:35:38;4.90;99.90
2489;DHT22;1255;48.716;9.124;2023-12-20T08:38:05;4.90;99.90
2489;DHT22;1255;48.716;9.124;2023-12-20T08:40:31;4.90;99.90
2489;DHT22;1255;48.716;9.124;2023-12-20T08:42:58;4.90;99.90
2489;DHT22;1255;48.716;9.124;2023-12-20T08:45:25;4.90;99.90
2489;DHT22;1255;48.716;9.124;2023-12-20T08:47:52;4.90;99.90
2489;DHT22;1255;48.716;9.124;2023-12-20T08:50:20;4.90;99.90
2489;DHT22;1255;48.716;9.124;2023-12-20T08:52:47;4.90;99.90
2489;DHT22;1255;48.716;9.124;2023-12-20T08:55:13;4.90;99.90
2489;DHT22;1255;48.716;9.124;2023-12-20T08:57:42;4.90;99.90
2489;DHT22;1255;48.716;9.124;2023-12-20T09:00:10;4.90;99.90
2489;DHT22;1255;48.716;9.124;2023-12-20T09:02:37;4.90;99.90
2489;DHT22;1255;48.716;9.124;2023-12-20T09:05:04;4.90;99.90
2489;DHT22;1255;48.716;9.124;2023-12-20T09:07:33;4.90;99.90
2489;DHT22;1255;48.716;9.124;2023-12-20T09:10:03;5.00;99.90
2489;DHT22;1255;48.716;9.124;2023-12-20T09:12:33;5.10;99.90
2489;DHT22;1255;48.716;9.124;2023-12-20T09:15:08;5.10;99.90
2489;DHT22;1255;48.716;9.124;2023-12-20T09:17:35;5.20;99.90
2489;DHT22;1255;48.716;9.124;2023-12-20T09:20:02;5.30;99.90
2489;DHT22;1255;48.716;9.124;2023-12-20T09:22:33;5.50;99.90
2489;DHT22;1255;48.716;9.124;2023-12-20T09:25:00;5.90;99.90
2489;DHT22;1255;48.716;9.124;2023-12-20T09:27:28;6.90;99.90
2489;DHT22;1255;48.716;9.124;2023-12-20T09:29:55;8.90;99.90
2489;DHT22;1255;48.716;9.124;2023-12-20T09:32:21;11.40;99.90
2489;DHT22;1255;48.716;9.124;2023-12-20T09:34:48;13.60;99.90
2489;DHT22;1255;48.716;9.124;2023-12-20T09:37:15;15.00;99.90
2489;DHT22;1255;48.716;9.124;2023-12-20T09:39:43;16.20;99.90
2489;DHT22;1255;48.716;9.124;2023-12-20T09:42:12;17.10;99.90
2489;DHT22;1255;48.716;9.124;2023-12-20T09:44:41;17.50;99.90
2489;DHT22;1255;48.716;9.124;2023-12-20T09:47:10;18.30;99.90
2489;DHT22;1255;48.716;9.124;2023-12-20T09:49:37;19.00;99.90
2489;DHT22;1255;48.716;9.124;2023-12-20T09:52:05;19.80;99.10
2489;DHT22;1255;48.716;9.124;2023-12-20T09:54:34;20.30;96.90
2489;DHT22;1255;48.716;9.124;2023-12-20T09:57:04;20.90;96.10
2489;DHT22;1255;48.716;9.124;2023-12-20T09:59:31;21.10;94.60
2489;DHT22;1255;48.716;9.124;2023-12-20T10:02:02;20.70;94.10
2489;DHT22;1255;48.716;9.124;2023-12-20T10:04:32;20.50;94.00
2489;DHT22;1255;48.716;9.124;2023-12-20T10:07:02;21.20;94.30
2489;DHT22;1255;48.716;9.124;2023-12-20T10:09:31;20.70;92.80
2489;DHT22;1255;48.716;9.124;2023-12-20T10:11:59;20.80;92.90
2489;DHT22;1255;48.716;9.124;2023-12-20T10:14:27;21.10;92.00
2489;DHT22;1255;48.716;9.124;2023-12-20T10:16:54;21.20;92.20
2489;DHT22;1255;48.716;9.124;2023-12-20T10:19:28;21.40;91.80
2489;DHT22;1255;48.716;9.124;2023-12-20T10:21:54;21.40;91.60
2489;DHT22;1255;48.716;9.124;2023-12-20T10:24:21;19.90;92.70
2489;DHT22;1255;48.716;9.124;2023-12-20T10:26:48;17.60;94.10
2489;DHT22;1255;48.716;9.124;2023-12-20T10:29:31;15.30;95.60
2489;DHT22;1255;48.716;9.124;2023-12-20T10:31:58;13.20;98.00
2489;DHT22;1255;48.716;9.124;2023-12-20T10:34:25;11.90;99.60
2489;DHT22;1255;48.716;9.124;2023-12-20T10:36:52;11.00;99.90
2489;DHT22;1255;48.716;9.124;2023-12-20T10:39:20;10.40;99.90
2489;DHT22;1255;48.716;9.124;2023-12-20T10:41:47;9.80;99.90
2489;DHT22;1255;48.716;9.124;2023-12-20T10:44:14;9.30;99.90
2489;DHT22;1255;48.716;9.124;2023-12-20T10:46:43;9.00;99.90
2489;DHT22;1255;48.716;9.124;2023-12-20T10:49:17;8.60;99.90
2489;DHT22;1255;48.716;9.124;2023-12-20T10:51:46;8.40;99.90
2489;DHT22;1255;48.716;9.124;2023-12-20T10:54:14;8.20;99.90
2489;DHT22;1255;48.716;9.124;2023-12-20T10:56:41;8.20;99.90
2489;DHT22;1255;48.716;9.124;2023-12-20T10:59:10;8.00;99.90
2489;DHT22;1255;48.716;9.124;2023-12-20T11:01:38;7.80;99.90
2489;DHT22;1255;48.716;9.124;2023-12-20T11:04:09;7.60;99.90
2489;DHT22;1255;48.716;9.124;2023-12-20T11:06:44;7.40;99.90
2489;DHT22;1255;48.716;9.124;2023-12-20T11:09:16;7.10;99.90
2489;DHT22;1255;48.716;9.124;2023-12-20T11:11:59;7.00;99.90
2489;DHT22;1255;48.716;9.124;2023-12-20T11:14:35;6.80;99.90
2489;DHT22;1255;48.716;9.124;2023-12-20T11:17:07;6.70;99.90
2489;DHT22;1255;48.716;9.124;2023-12-20T11:19:38;6.60;99.90
2489;DHT22;1255;48.716;9.124;2023-12-20T11:22:09;6.50;99.90
2489;DHT22;1255;48.716;9.124;2023-12-20T11:24:44;6.40;99.90
2489;DHT22;1255;48.716;9.124;2023-12-20T11:27:12;6.30;99.90
2489;DHT22;1255;48.716;9.124;2023-12-20T11:29:39;6.20;99.90
2489;DHT22;1255;48.716;9.124;2023-12-20T11:32:30;6.20;99.90
2489;DHT22;1255;48.716;9.124;2023-12-20T11:34:59;6.10;99.90
2489;DHT22;1255;48.716;9.124;2023-12-20T11:37:29;6.10;99.90
2489;DHT22;1255;48.716;9.124;2023-12-20T11:40:00;6.10;99.90
2489;DHT22;1255;48.716;9.124;2023-12-20T11:42:28;6.10;99.90
2489;DHT22;1255;48.716;9.124;2023-12-20T11:44:56;6.10;99.90
2489;DHT22;1255;48.716;9.124;2023-12-20T11:47:22;6.00;99.90
2489;DHT22;1255;48.716;9.124;2023-12-20T11:49:49;6.10;99.90
2489;DHT22;1255;48.716;9.124;2023-12-20T11:52:18;6.10;99.90
2489;DHT22;1255;48.716;9.124;2023-12-20T11:54:44;6.10;99.90
2489;DHT22;1255;48.716;9.124;2023-12-20T11:57:11;6.20;99.90
2489;DHT22;1255;48.716;9.124;2023-12-20T11:59:38;6.10;99.90
2489;DHT22;1255;48.716;9.124;2023-12-20T12:02:05;6.10;99.90
2489;DHT22;1255;48.716;9.124;2023-12-20T12:04:32;6.00;99.90
2489;DHT22;1255;48.716;9.124;2023-12-20T12:06:58;5.90;99.90
2489;DHT22;1255;48.716;9.124;2023-12-20T12:09:26;5.90;99.90
2489;DHT22;1255;48.716;9.124;2023-12-20T12:11:53;5.90;99.90
2489;DHT22;1255;48.716;9.124;2023-12-20T12:14:20;5.90;99.90
2489;DHT22;1255;48.716;9.124;2023-12-20T12:16:47;5.90;99.90
2489;DHT22;1255;48.716;9.124;2023-12-20T12:19:21;5.90;99.90
2489;DHT22;1255;48.716;9.124;2023-12-20T12:21:48;5.90;99.90
2489;DHT22;1255;48.716;9.124;2023-12-20T12:24:16;6.00;99.90
2489;DHT22;1255;48.716;9.124;2023-12-20T12:26:51;6.00;99.90
2489;DHT22;1255;48.716;9.124;2023-12-20T12:29:18;6.10;99.90
2489;DHT22;1255;48.716;9.124;2023-12-20T12:31:44;6.10;99.90
2489;DHT22;1255;48.716;9.124;2023-12-20T12:34:11;6.10;99.90
2489;DHT22;1255;48.716;9.124;2023-12-20T12:36:39;6.20;99.90
2489;DHT22;1255;48.716;9.124;2023-12-20T12:39:06;6.20;99.90
2489;DHT22;1255;48.716;9.124;2023-12-20T12:41:33;6.20;99.90
2489;DHT22;1255;48.716;9.124;2023-12-20T12:44:02;6.20;99.90
2489;DHT22;1255;48.716;9.124;2023-12-20T12:46:29;6.20;99.90
2489;DHT22;1255;48.716;9.124;2023-12-20T12:48:56;6.30;99.90
2489;DHT22;1255;48.716;9.124;2023-12-20T12:51:22;6.40;99.90
2489;DHT22;1255;48.716;9.124;2023-12-20T12:53:49;6.40;99.90
2489;DHT22;1255;48.716;9.124;2023-12-20T12:56:16;6.50;99.90
2489;DHT22;1255;48.716;9.124;2023-12-20T12:58:43;6.50;99.90
2489;DHT22;1255;48.716;9.124;2023-12-20T13:01:11;6.40;99.90
2489;DHT22;1255;48.716;9.124;2023-12-20T13:03:39;6.40;99.90
2489;DHT22;1255;48.716;9.124;2023-12-20T13:06:06;6.30;99.90
2489;DHT22;1255;48.716;9.124;2023-12-20T13:08:34;6.20;99.90
2489;DHT22;1255;48.716;9.124;2023-12-20T13:11:01;6.20;99.90
2489;DHT22;1255;48.716;9.124;2023-12-20T13:13:29;6.10;99.90
2489;DHT22;1255;48.716;9.124;2023-12-20T13:15:57;6.10;99.90
2489;DHT22;1255;48.716;9.124;2023-12-20T13:18:25;6.10;99.90
2489;DHT22;1255;48.716;9.124;2023-12-20T13:20:52;6.10;99.90
2489;DHT22;1255;48.716;9.124;2023-12-20T13:23:20;6.10;99.90
2489;DHT22;1255;48.716;9.124;2023-12-20T13:25:47;6.10;99.90
2489;DHT22;1255;48.716;9.124;2023-12-20T13:28:15;6.10;99.90
2489;DHT22;1255;48.716;9.124;2023-12-20T13:30:43;6.10;99.90
2489;DHT22;1255;48.716;9.124;2023-12-20T13:33:11;6.10;99.90
2489;DHT22;1255;48.716;9.124;2023-12-20T13:35:40;6.10;99.90
2489;DHT22;1255;48.716;9.124;2023-12-20T13:38:07;6.20;99.90
2489;DHT22;1255;48.716;9.124;2023-12-20T13:40:35;6.30;99.90
2489;DHT22;1255;48.716;9.124;2023-12-20T13:43:02;6.30;99.90
2489;DHT22;1255;48.716;9.124;2023-12-20T13:45:30;6.30;99.90
2489;DHT22;1255;48.716;9.124;2023-12-20T13:47:57;6.10;99.90
2489;DHT22;1255;48.716;9.124;2023-12-20T13:50:24;6.10;99.90
2489;DHT22;1255;48.716;9.124;2023-12-20T13:52:57;6.00;99.90
2489;DHT22;1255;48.716;9.124;2023-12-20T13:55:24;5.90;99.90
2489;DHT22;1255;48.716;9.124;2023-12-20T13:57:53;5.90;99.90
2489;DHT22;1255;48.716;9.124;2023-12-20T14:00:20;5.90;99.90
2489;DHT22;1255;48.716;9.124;2023-12-20T14:02:47;5.90;99.90
2489;DHT22;1255;48.716;9.124;2023-12-20T14:05:15;5.80;99.90
2489;DHT22;1255;48.716;9.124;2023-12-20T14:07:43;5.80;99.90
2489;DHT22;1255;48.716;9.124;2023-12-20T14:10:13;5.70;99.90
2489;DHT22;1255;48.716;9.124;2023-12-20T14:12:40;5.70;99.90
2489;DHT22;1255;48.716;9.124;2023-12-20T14:15:08;5.60;99.90
2489;DHT22;1255;48.716;9.124;2023-12-20T14:17:36;5.60;99.90
2489;DHT22;1255;48.716;9.124;2023-12-20T14:20:05;5.60;99.90
2489;DHT22;1255;48.716;9.124;2023-12-20T14:22:33;5.60;99.90
2489;DHT22;1255;48.716;9.124;2023-12-20T14:25:00;5.60;99.90
2489;DHT22;1255;48.716;9.124;2023-12-20T14:27:28;5.60;99.90
2489;DHT22;1255;48.716;9.124;2023-12-20T14:29:55;5.50;99.90
2489;DHT22;1255;48.716;9.124;2023-12-20T14:32:22;5.50;99.90
2489;DHT22;1255;48.716;9.124;2023-12-20T14:34:48;5.50;99.90
2489;DHT22;1255;48.716;9.124;2023-12-20T14:37:15;5.50;99.90
2489;DHT22;1255;48.716;9.124;2023-12-20T14:39:43;5.40;99.90
2489;DHT22;1255;48.716;9.124;2023-12-20T14:42:09;5.40;99.90
2489;DHT22;1255;48.716;9.124;2023-12-20T14:44:41;5.40;99.90
2489;DHT22;1255;48.716;9.124;2023-12-20T14:47:08;5.40;99.90
2489;DHT22;1255;48.716;9.124;2023-12-20T14:49:35;5.40;99.90
2489;DHT22;1255;48.716;9.124;2023-12-20T14:52:03;5.40;99.90
2489;DHT22;1255;48.716;9.124;2023-12-20T14:54:30;5.40;99.90
2489;DHT22;1255;48.716;9.124;2023-12-20T14:56:57;5.30;99.90
2489;DHT22;1255;48.716;9.124;2023-12-20T14:59:24;5.30;99.90
2489;DHT22;1255;48.716;9.124;2023-12-20T15:01:52;5.20;99.90
2489;DHT22;1255;48.716;9.124;2023-12-20T15:04:20;5.20;99.90
2489;DHT22;1255;48.716;9.124;2023-12-20T15:06:53;5.10;99.90
2489;DHT22;1255;48.716;9.124;2023-12-20T15:09:20;5.10;99.90
2489;DHT22;1255;48.716;9.124;2023-12-20T15:11:47;5.00;99.90
2489;DHT22;1255;48.716;9.124;2023-12-20T15:14:14;4.90;99.90
2489;DHT22;1255;48.716;9.124;2023-12-20T15:16:44;4.80;99.90
2489;DHT22;1255;48.716;9.124;2023-12-20T15:19:13;4.80;99.90
2489;DHT22;1255;48.716;9.124;2023-12-20T15:21:40;4.80;99.90
2489;DHT22;1255;48.716;9.124;2023-12-20T15:24:08;4.80;99.90
2489;DHT22;1255;48.716;9.124;2023-12-20T15:26:40;4.80;99.90
2489;DHT22;1255;48.716;9.124;2023-12-20T15:29:07;4.70;99.90
2489;DHT22;1255;48.716;9.124;2023-12-20T15:31:35;4.70;99.90
2489;DHT22;1255;48.716;9.124;2023-12-20T15:34:02;4.60;99.90
2489;DHT22;1255;48.716;9.124;2023-12-20T15:36:30;4.50;99.90
2489;DHT22;1255;48.716;9.124;2023-12-20T15:38:57;4.50;99.90
2489;DHT22;1255;48.716;9.124;2023-12-20T15:41:24;4.40;99.90
2489;DHT22;1255;48.716;9.124;2023-12-20T15:43:50;4.50;99.90
2489;DHT22;1255;48.716;9.124;2023-12-20T15:46:17;4.50;99.90
2489;DHT22;1255;48.716;9.124;2023-12-20T15:48:44;4.40;99.90
2489;DHT22;1255;48.716;9.124;2023-12-20T15:51:10;4.40;99.90
2489;DHT22;1255;48.716;9.124;2023-12-20T15:53:39;4.40;99.90
2489;DHT22;1255;48.716;9.124;2023-12-20T15:56:06;4.40;99.90
2489;DHT22;1255;48.716;9.124;2023-12-20T15:58:33;4.40;99.90
2489;DHT22;1255;48.716;9.124;2023-12-20T16:01:00;4.30;99.90
2489;DHT22;1255;48.716;9.124;2023-12-20T16:03:26;4.30;99.90
2489;DHT22;1255;48.716;9.124;2023-12-20T16:05:53;4.30;99.90
2489;DHT22;1255;48.716;9.124;2023-12-20T16:08:20;4.30;99.90
2489;DHT22;1255;48.716;9.124;2023-12-20T16:10:48;4.20;99.90
2489;DHT22;1255;48.716;9.124;2023-12-20T16:13:15;4.30;99.90
2489;DHT22;1255;48.716;9.124;2023-12-20T16:15:42;4.30;99.90
2489;DHT22;1255;48.716;9.124;2023-12-20T16:18:09;4.40;99.90
2489;DHT22;1255;48.716;9.124;2023-12-20T16:20:37;4.30;99.90
2489;DHT22;1255;48.716;9.124;2023-12-20T16:23:06;4.40;99.90
2489;DHT22;1255;48.716;9.124;2023-12-20T16:25:35;4.40;99.90
2489;DHT22;1255;48.716;9.124;2023-12-20T16:28:05;4.30;99.90
2489;DHT22;1255;48.716;9.124;2023-12-20T16:30:32;4.30;99.90
2489;DHT22;1255;48.716;9.124;2023-12-20T16:32:58;4.20;99.90
2489;DHT22;1255;48.716;9.124;2023-12-20T16:35:25;4.20;99.90
2489;DHT22;1255;48.716;9.124;2023-12-20T16:37:52;4.20;99.90
2489;DHT22;1255;48.716;9.124;2023-12-20T16:40:19;4.20;99.90
2489;DHT22;1255;48.716;9.124;2023-12-20T16:42:50;4.20;99.90
2489;DHT22;1255;48.716;9.124;2023-12-20T16:45:18;4.10;99.90
2489;DHT22;1255;48.716;9.124;2023-12-20T16:47:45;4.10;99.90
2489;DHT22;1255;48.716;9.124;2023-12-20T16:50:12;4.10;99.90
2489;DHT22;1255;48.716;9.124;2023-12-20T16:52:39;4.10;99.90
2489;DHT22;1255;48.716;9.124;2023-12-20T16:55:08;4.10;99.90
2489;DHT22;1255;48.716;9.124;2023-12-20T16:57:35;4.10;99.90
2489;DHT22;1255;48.716;9.124;2023-12-20T17:00:03;4.00;99.90
2489;DHT22;1255;48.716;9.124;2023-12-20T17:02:32;4.10;99.90
2489;DHT22;1255;48.716;9.124;2023-12-20T17:04:58;4.10;99.90
2489;DHT22;1255;48.716;9.124;2023-12-20T17:07:25;4.10;99.90
2489;DHT22;1255;48.716;9.124;2023-12-20T17:09:53;4.10;99.90
2489;DHT22;1255;48.716;9.124;2023-12-20T17:12:19;4.10;99.90
2489;DHT22;1255;48.716;9.124;2023-12-20T17:14:46;4.10;99.90
2489;DHT22;1255;48.716;9.124;2023-12-20T17:17:13;4.10;99.90
2489;DHT22;1255;48.716;9.124;2023-12-20T17:19:41;4.10;99.90
2489;DHT22;1255;48.716;9.124;2023-12-20T17:22:09;4.00;99.90
2489;DHT22;1255;48.716;9.124;2023-12-20T17:24:35;4.00;99.90
2489;DHT22;1255;48.716;9.124;2023-12-20T17:27:02;3.90;99.90
2489;DHT22;1255;48.716;9.124;2023-12-20T17:29:30;3.90;99.90
2489;DHT22;1255;48.716;9.124;2023-12-20T17:31:57;3.90;99.90
2489;DHT22;1255;48.716;9.124;2023-12-20T17:34:23;3.80;99.90
2489;DHT22;1255;48.716;9.124;2023-12-20T17:36:52;3.80;99.90
2489;DHT22;1255;48.716;9.124;2023-12-20T17:39:19;3.80;99.90
2489;DHT22;1255;48.716;9.124;2023-12-20T17:41:46;3.90;99.90
2489;DHT22;1255;48.716;9.124;2023-12-20T17:44:12;3.90;99.90
2489;DHT22;1255;48.716;9.124;2023-12-20T17:46:41;3.80;99.90
2489;DHT22;1255;48.716;9.124;2023-12-20T17:49:08;3.80;99.90
2489;DHT22;1255;48.716;9.124;2023-12-20T17:51:35;3.80;99.90
2489;DHT22;1255;48.716;9.124;2023-12-20T17:54:03;3.80;99.90
2489;DHT22;1255;48.716;9.124;2023-12-20T17:56:30;3.80;99.90
2489;DHT22;1255;48.716;9.124;2023-12-20T17:58:58;3.70;99.90
2489;DHT22;1255;48.716;9.124;2023-12-20T18:01:25;3.70;99.90
2489;DHT22;1255;48.716;9.124;2023-12-20T18:03:51;3.70;99.90
2489;DHT22;1255;48.716;9.124;2023-12-20T18:06:18;3.70;99.90
2489;DHT22;1255;48.716;9.124;2023-12-20T18:08:45;3.70;99.90
2489;DHT22;1255;48.716;9.124;2023-12-20T18:11:13;3.70;99.90
2489;DHT22;1255;48.716;9.124;2023-12-20T18:13:39;3.70;99.90
2489;DHT22;1255;48.716;9.124;2023-12-20T18:16:06;3.80;99.90
2489;DHT22;1255;48.716;9.124;2023-12-20T18:18:35;3.80;99.90
2489;DHT22;1255;48.716;9.124;2023-12-20T18:21:02;3.80;99.90
2489;DHT22;1255;48.716;9.124;2023-12-20T18:23:29;3.80;99.90
2489;DHT22;1255;48.716;9.124;2023-12-20T18:25:55;3.80;99.90
2489;DHT22;1255;48.716;9.124;2023-12-20T18:28:24;3.80;99.90
2489;DHT22;1255;48.716;9.124;2023-12-20T18:30:51;3.80;99.90
2489;DHT22;1255;48.716;9.124;2023-12-20T18:33:18;3.80;99.90
2489;DHT22;1255;48.716;9.124;2023-12-20T18:35:44;3.80;99.90
2489;DHT22;1255;48.716;9.124;2023-12-20T18:38:11;3.80;99.90
2489;DHT22;1255;48.716;9.124;2023-12-20T18:40:39;3.80;99.90
2489;DHT22;1255;48.716;9.124;2023-12-20T18:43:12;3.80;99.90
2489;DHT22;1255;48.716;9.124;2023-12-20T18:45:40;3.80;99.90
2489;DHT22;1255;48.716;9.124;2023-12-20T18:48:07;3.80;99.90
2489;DHT22;1255;48.716;9.124;2023-12-20T18:50:34;3.90;99.90
2489;DHT22;1255;48.716;9.124;2023-12-20T18:53:01;3.90;99.90
2489;DHT22;1255;48.716;9.124;2023-12-20T18:55:28;3.90;99.90
2489;DHT22;1255;48.716;9.124;2023-12-20T18:57:55;3.90;99.90
2489;DHT22;1255;48.716;9.124;2023-12-20T19:00:22;3.80;99.90
2489;DHT22;1255;48.716;9.124;2023-12-20T19:02:50;3.80;99.90
2489;DHT22;1255;48.716;9.124;2023-12-20T19:05:17;3.90;99.90
2489;DHT22;1255;48.716;9.124;2023-12-20T19:07:43;3.90;99.90
2489;DHT22;1255;48.716;9.124;2023-12-20T19:10:11;3.80;99.90
2489;DHT22;1255;48.716;9.124;2023-12-20T19:12:38;3.80;99.90
2489;DHT22;1255;48.716;9.124;2023-12-20T19:15:07;3.90;99.90
2489;DHT22;1255;48.716;9.124;2023-12-20T19:17:38;3.90;99.90
2489;DHT22;1255;48.716;9.124;2023-12-20T19:22:59;4.00;99.90
2489;DHT22;1255;48.716;9.124;2023-12-20T19:25:26;4.00;99.90
2489;DHT22;1255;48.716;9.124;2023-12-20T19:27:53;4.00;99.90
2489;DHT22;1255;48.716;9.124;2023-12-20T19:30:21;3.90;99.90
2489;DHT22;1255;48.716;9.124;2023-12-20T19:32:48;4.00;99.90
2489;DHT22;1255;48.716;9.124;2023-12-20T19:35:17;4.00;99.90
2489;DHT22;1255;48.716;9.124;2023-12-20T19:37:44;3.90;99.90
2489;DHT22;1255;48.716;9.124;2023-12-20T19:40:11;3.90;99.90
2489;DHT22;1255;48.716;9.124;2023-12-20T19:42:38;3.90;99.90
2489;DHT22;1255;48.716;9.124;2023-12-20T19:45:06;3.90;99.90
2489;DHT22;1255;48.716;9.124;2023-12-20T19:47:35;3.90;99.90
2489;DHT22;1255;48.716;9.124;2023-12-20T19:50:02;3.90;99.90
2489;DHT22;1255;48.716;9.124;2023-12-20T19:52:30;4.00;99.90
2489;DHT22;1255;48.716;9.124;2023-12-20T19:54:57;4.00;99.90
2489;DHT22;1255;48.716;9.124;2023-12-20T19:57:24;3.90;99.90
2489;DHT22;1255;48.716;9.124;2023-12-20T19:59:51;3.90;99.90
2489;DHT22;1255;48.716;9.124;2023-12-20T20:02:18;3.90;99.90
2489;DHT22;1255;48.716;9.124;2023-12-20T20:04:44;3.90;99.90
2489;DHT22;1255;48.716;9.124;2023-12-20T20:07:11;3.90;99.90
2489;DHT22;1255;48.716;9.124;2023-12-20T20:09:41;3.90;99.90
2489;DHT22;1255;48.716;9.124;2023-12-20T20:12:08;3.80;99.90
2489;DHT22;1255;48.716;9.124;2023-12-20T20:14:35;3.90;99.90
2489;DHT22;1255;48.716;9.124;2023-12-20T20:17:02;3.80;99.90
2489;DHT22;1255;48.716;9.124;2023-12-20T20:19:29;3.80;99.90
2489;DHT22;1255;48.716;9.124;2023-12-20T20:21:56;3.80;99.90
2489;DHT22;1255;48.716;9.124;2023-12-20T20:24:23;3.80;99.90
2489;DHT22;1255;48.716;9.124;2023-12-20T20:26:51;3.80;99.90
2489;DHT22;1255;48.716;9.124;2023-12-20T20:29:18;3.80;99.90
2489;DHT22;1255;48.716;9.124;2023-12-20T20:31:45;3.80;99.90
2489;DHT22;1255;48.716;9.124;2023-12-20T20:34:12;3.70;99.90
2489;DHT22;1255;48.716;9.124;2023-12-20T20:36:38;3.80;99.90
2489;DHT22;1255;48.716;9.124;2023-12-20T20:39:05;3.80;99.90